Aviation Digital Data Service (ADDS)

Output produced by TAFs form (1726 UTC 01 May 2016)
found at http://www.aviationweather.gov/adds/tafs/
 
KGFL 011722Z 0118/0218 16006KT 5SM -RA BR OVC035 
     FM012000 15006KT 4SM -RA BR OVC020 
     FM020000 16007KT 5SM -DZ BR BKN007 OVC020 
     FM020600 14005KT 6SM -DZ BR OVC020 
     FM021400 12006KT 3SM -RA BR BKN008 OVC020